Terminal Aerodrome Forecast
Issued by NWS

Home | Current Version | Previous Version | Text Only | Print | Product List | Glossary On
Versions: 1 2 3 4 5 6 7 8 9 10 11 12 13 14 15 16 17 18 19 20 21
000
FTUS41 KGYX 271720
TAFRKD
TAF
KRKD 271720Z 2718/2818 22008KT P6SM BKN050
      TEMPO 2721/2801 4SM -SHRA BKN025
     FM280200 VRB03KT P6SM SCT050
      TEMPO 2808/2812 1/2SM FG VV002
      AMD LTD TO CLD VIS AND WIND=

USA.gov is the U.S. government's official web portal to all federal, state and local government web resources and services.